createdAt,value
2023-04-11T00:00:41.266Z,47.71
2023-04-11T00:03:09.300Z,48.34
2023-04-11T00:05:37.344Z,48.52
2023-04-11T00:08:05.333Z,48.57
2023-04-11T00:10:33.352Z,49.51
2023-04-11T00:13:01.346Z,50.00
2023-04-11T00:15:29.552Z,50.23
2023-04-11T00:17:58.965Z,49.70
2023-04-11T00:20:27.003Z,50.42
2023-04-11T00:22:55.001Z,50.45
2023-04-11T00:25:22.894Z,51.12
2023-04-11T00:27:50.862Z,51.77
2023-04-11T00:30:18.916Z,51.87
2023-04-11T00:32:47.659Z,52.46
2023-04-11T00:35:17.161Z,52.57
2023-04-11T00:37:45.705Z,53.15
2023-04-11T00:40:17.770Z,53.08
2023-04-11T00:42:45.856Z,53.23
2023-04-11T00:45:14.143Z,53.41
2023-04-11T00:47:42.509Z,53.78
2023-04-11T00:50:13.918Z,54.15
2023-04-11T00:52:46.300Z,54.64
2023-04-11T00:55:15.173Z,54.46
2023-04-11T00:57:43.478Z,54.68
2023-04-11T01:00:12.603Z,55.30
2023-04-11T01:03:34.356Z,56.12
2023-04-11T01:06:02.860Z,55.88
2023-04-11T01:08:32.286Z,55.37
2023-04-11T01:11:00.222Z,55.55
2023-04-11T01:13:29.689Z,55.54
2023-04-11T01:15:57.824Z,55.30
2023-04-11T01:18:26.810Z,55.93
2023-04-11T01:20:55.235Z,55.93
2023-04-11T01:23:25.077Z,56.21
2023-04-11T01:25:53.443Z,56.68
2023-04-11T01:28:22.540Z,56.81
2023-04-11T01:30:52.093Z,57.66
2023-04-11T01:33:21.244Z,57.36
2023-04-11T01:35:49.702Z,57.58
2023-04-11T01:38:17.740Z,57.45
2023-04-11T01:40:47.496Z,57.69
2023-04-11T01:43:15.900Z,57.42
2023-04-11T01:45:43.864Z,57.13
2023-04-11T01:48:12.016Z,57.65
2023-04-11T01:50:39.994Z,57.50
2023-04-11T01:53:07.982Z,57.46
2023-04-11T01:55:36.063Z,58.03
2023-04-11T01:58:05.393Z,57.94
2023-04-11T02:00:37.045Z,58.71
2023-04-11T02:03:05.729Z,60.09
2023-04-11T02:05:33.840Z,59.65
2023-04-11T02:08:01.957Z,59.06
2023-04-11T02:10:29.967Z,61.13
2023-04-11T02:12:57.879Z,60.90
2023-04-11T02:15:27.199Z,61.43
2023-04-11T02:17:55.221Z,61.04
2023-04-11T02:20:23.391Z,61.19
2023-04-11T02:22:51.433Z,61.42
2023-04-11T02:25:19.422Z,61.85
2023-04-11T02:27:47.463Z,62.53
2023-04-11T02:30:15.418Z,62.79
2023-04-11T02:32:49.546Z,63.93
2023-04-11T02:35:17.677Z,65.27
2023-04-11T02:37:45.649Z,66.15
2023-04-11T02:40:13.752Z,66.74
2023-04-11T02:42:43.216Z,67.47
2023-04-11T02:45:12.884Z,67.03
2023-04-11T02:47:40.866Z,66.98
2023-04-11T02:50:12.175Z,67.10
2023-04-11T02:52:47.831Z,67.20
2023-04-11T02:55:17.705Z,67.31
2023-04-11T02:57:45.691Z,67.08
2023-04-11T03:00:18.257Z,66.09
2023-04-11T03:02:50.772Z,66.65
2023-04-11T03:05:24.376Z,66.99
2023-04-11T03:07:54.502Z,67.28
2023-04-11T03:10:22.922Z,68.02
2023-04-11T03:12:51.711Z,68.60
2023-04-11T03:15:19.922Z,69.52
2023-04-11T03:17:48.123Z,70.14
2023-04-11T03:20:19.707Z,70.88
2023-04-11T03:22:52.157Z,71.62
2023-04-11T03:25:22.609Z,72.64
2023-04-11T03:27:52.135Z,73.56
2023-04-11T03:30:20.106Z,74.79
2023-04-11T03:32:49.215Z,77.61
2023-04-11T03:35:20.495Z,80.16
2023-04-11T03:37:52.094Z,81.04
2023-04-11T03:40:20.320Z,81.81
2023-04-11T03:42:54.356Z,83.05
2023-04-11T03:45:27.111Z,84.31
2023-04-11T03:48:00.176Z,83.28
2023-04-11T03:50:36.817Z,82.87
2023-04-11T03:53:07.227Z,82.13
2023-04-11T03:55:35.267Z,81.93
2023-04-11T03:58:05.620Z,81.94
2023-04-11T04:00:34.305Z,82.21
2023-04-11T04:03:08.279Z,83.34
2023-04-11T04:05:38.438Z,84.57
2023-04-11T04:08:08.336Z,85.07
2023-04-11T04:10:48.074Z,85.21
2023-04-11T04:13:16.909Z,85.25
2023-04-11T04:15:54.383Z,85.62
2023-04-11T04:18:26.275Z,85.03
2023-04-11T04:20:54.194Z,84.72
2023-04-11T04:23:26.856Z,85.84
2023-04-11T04:26:13.209Z,85.96
2023-04-11T04:28:46.233Z,85.81
2023-04-11T04:31:22.427Z,86.13
2023-04-11T04:33:52.452Z,86.76
2023-04-11T04:36:25.170Z,86.48
2023-04-11T04:38:57.548Z,86.96
2023-04-11T04:41:25.682Z,89.51
2023-04-11T04:43:59.744Z,91.77
2023-04-11T04:46:36.954Z,92.78
2023-04-11T04:49:07.419Z,91.91
2023-04-11T04:51:37.727Z,92.44
2023-04-11T04:54:08.323Z,92.74
2023-04-11T04:56:36.255Z,94.38
2023-04-11T04:59:04.760Z,94.24
2023-04-11T05:01:40.359Z,93.60
2023-04-11T05:04:10.614Z,92.98
2023-04-11T05:06:49.983Z,92.12
2023-04-11T05:09:20.012Z,91.73
2023-04-11T05:11:50.477Z,91.27
2023-04-11T05:14:22.517Z,90.99
2023-04-11T05:16:50.563Z,91.43
2023-04-11T05:19:18.745Z,91.52
2023-04-11T05:21:50.420Z,91.72
2023-04-11T05:24:19.805Z,95.54
2023-04-11T05:26:47.844Z,97.50
2023-04-11T05:29:19.321Z,100.00
2023-04-11T05:31:47.325Z,100.00
2023-04-11T05:34:15.438Z,100.00
2023-04-11T05:36:46.357Z,100.00
2023-04-11T05:39:14.313Z,98.26
2023-04-11T05:41:43.692Z,99.37
2023-04-11T05:44:11.677Z,99.30
2023-04-11T05:46:39.669Z,97.76
2023-04-11T05:49:07.907Z,96.87
2023-04-11T05:51:35.805Z,97.61
2023-04-11T05:54:03.763Z,99.86
2023-04-11T05:56:31.693Z,100.00
2023-04-11T05:59:00.928Z,99.82
2023-04-11T06:01:30.370Z,99.48
2023-04-11T06:03:58.728Z,100.00
2023-04-11T06:06:27.638Z,99.79
2023-04-11T06:08:55.615Z,99.01
2023-04-11T06:11:25.162Z,98.59
2023-04-11T06:13:53.091Z,98.11
2023-04-11T06:16:22.446Z,97.02
2023-04-11T06:18:50.364Z,96.60
2023-04-11T06:21:18.318Z,96.48
2023-04-11T06:23:46.252Z,97.53
2023-04-11T06:26:14.175Z,98.82
2023-04-11T06:28:42.101Z,99.42
2023-04-11T06:31:11.181Z,100.00
2023-04-11T06:33:40.694Z,100.00
2023-04-11T06:36:09.347Z,100.00
2023-04-11T06:38:38.306Z,100.00
2023-04-11T06:41:06.620Z,100.00
2023-04-11T06:43:34.534Z,100.00
2023-04-11T06:46:02.452Z,100.00
2023-04-11T06:48:30.324Z,100.00
2023-04-11T06:50:59.592Z,100.00
2023-04-11T06:53:27.813Z,100.00
2023-04-11T06:55:55.785Z,100.00
2023-04-11T06:58:23.816Z,100.00
2023-04-11T07:00:52.994Z,100.00
2023-04-11T07:03:21.172Z,100.00
2023-04-11T07:05:49.157Z,99.55
2023-04-11T07:08:18.452Z,100.00
2023-04-11T07:10:46.342Z,100.00
2023-04-11T07:13:14.295Z,96.65
2023-04-11T07:15:42.240Z,93.75
2023-04-11T07:18:10.297Z,93.33
2023-04-11T07:20:38.246Z,93.55
2023-04-11T07:23:06.159Z,94.16
2023-04-11T07:25:35.581Z,93.65
2023-04-11T07:28:07.418Z,92.47
2023-04-11T07:30:36.180Z,92.59
2023-04-11T07:33:04.432Z,92.20
2023-04-11T07:35:33.531Z,91.31
2023-04-11T07:38:01.625Z,90.13
2023-04-11T07:40:29.903Z,90.32
2023-04-11T07:42:59.348Z,90.88
2023-04-11T07:45:27.317Z,90.26
2023-04-11T07:47:55.248Z,90.36
2023-04-11T07:50:23.161Z,89.58
2023-04-11T07:52:51.398Z,89.75
2023-04-11T07:55:19.415Z,89.56
2023-04-11T07:57:47.528Z,89.85
2023-04-11T08:00:23.411Z,90.50
2023-04-11T08:02:52.491Z,90.29
2023-04-11T08:05:20.842Z,90.54
2023-04-11T08:07:48.784Z,90.49
2023-04-11T08:10:16.716Z,90.03
2023-04-11T08:12:44.631Z,90.33
2023-04-11T08:15:12.829Z,89.87
2023-04-11T08:17:43.791Z,89.98
2023-04-11T08:20:13.941Z,90.73
2023-04-11T08:22:44.780Z,91.46
2023-04-11T08:25:14.476Z,92.26
2023-04-11T08:27:42.707Z,92.15
2023-04-11T08:30:10.974Z,92.41
2023-04-11T08:32:38.969Z,92.42
2023-04-11T08:35:09.303Z,92.03
2023-04-11T08:37:37.236Z,91.42
2023-04-11T08:40:07.307Z,92.29
2023-04-11T08:42:36.199Z,90.65
2023-04-11T08:45:08.548Z,91.66
2023-04-11T08:47:37.298Z,90.98
2023-04-11T08:50:06.102Z,89.59
2023-04-11T08:52:37.195Z,89.65
2023-04-11T08:55:05.541Z,89.66
2023-04-11T08:57:34.825Z,89.18
2023-04-11T09:00:11.207Z,88.33
2023-04-11T09:02:56.405Z,88.12
2023-04-11T09:05:29.595Z,87.30
2023-04-11T09:08:00.118Z,87.39
2023-04-11T09:10:28.364Z,88.07
2023-04-11T09:12:57.459Z,89.02
2023-04-11T09:15:27.645Z,89.82
2023-04-11T09:17:59.677Z,89.18
2023-04-11T09:20:30.483Z,89.02
2023-04-11T09:23:00.371Z,88.16
2023-04-11T09:25:28.909Z,87.04
2023-04-11T09:28:09.074Z,86.30
2023-04-11T09:30:37.250Z,87.16
2023-04-11T09:33:20.287Z,87.65
2023-04-11T09:35:49.580Z,86.66
2023-04-11T09:38:31.183Z,88.29
2023-04-11T09:40:59.812Z,88.12
2023-04-11T09:43:27.748Z,87.34
2023-04-11T09:46:10.144Z,87.17
2023-04-11T09:48:46.590Z,87.77
2023-04-11T09:51:24.323Z,88.65
2023-04-11T09:54:05.457Z,88.18
2023-04-11T09:56:35.512Z,88.06
2023-04-11T09:59:04.788Z,89.01
2023-04-11T10:01:33.335Z,91.56
2023-04-11T10:04:01.937Z,92.91
2023-04-11T10:06:34.019Z,93.65
2023-04-11T10:09:12.866Z,93.70
2023-04-11T10:11:43.214Z,91.28
2023-04-11T10:14:31.432Z,92.90
2023-04-11T10:17:23.047Z,92.52
2023-04-11T10:19:56.470Z,91.68
2023-04-11T10:23:00.116Z,90.62
2023-04-11T10:25:29.632Z,90.60
2023-04-11T10:28:02.281Z,90.68
2023-04-11T10:31:01.718Z,93.41
2023-04-11T10:33:29.772Z,90.98
2023-04-11T10:35:59.438Z,89.52
2023-04-11T10:38:49.195Z,87.73
2023-04-11T10:41:31.452Z,87.17
2023-04-11T10:44:18.168Z,90.01
2023-04-11T10:46:51.510Z,88.54
2023-04-11T10:49:39.605Z,87.09
2023-04-11T10:52:25.308Z,86.48
2023-04-11T10:54:54.506Z,86.32
2023-04-11T10:57:23.912Z,86.71
2023-04-11T10:59:59.316Z,86.91
2023-04-11T11:02:42.736Z,85.69
2023-04-11T11:05:21.935Z,86.33
2023-04-11T11:07:52.021Z,86.49
2023-04-11T11:10:43.336Z,86.07
2023-04-11T11:13:14.181Z,87.29
2023-04-11T11:15:48.917Z,87.15
2023-04-11T11:18:17.889Z,87.30
2023-04-11T11:20:45.877Z,86.82
2023-04-11T11:23:14.012Z,86.74
2023-04-11T11:25:41.979Z,85.25
2023-04-11T11:28:10.812Z,85.13
2023-04-11T11:30:54.087Z,84.20
2023-04-11T11:33:26.380Z,84.86
2023-04-11T11:35:57.704Z,84.91
2023-04-11T11:38:28.810Z,84.72
2023-04-11T11:40:57.620Z,84.09
2023-04-11T11:43:27.333Z,82.39
2023-04-11T11:46:11.064Z,81.72
2023-04-11T11:48:39.229Z,81.01
2023-04-11T11:51:07.768Z,79.50
2023-04-11T11:53:35.882Z,78.94
2023-04-11T11:56:14.280Z,79.06
2023-04-11T11:58:46.065Z,78.41
2023-04-11T12:01:17.274Z,77.97
2023-04-11T12:03:48.131Z,77.61
2023-04-11T12:06:16.353Z,78.12
2023-04-11T12:08:50.183Z,77.29
2023-04-11T12:11:18.486Z,77.11
2023-04-11T12:13:46.845Z,78.82
2023-04-11T12:16:16.307Z,79.57
2023-04-11T12:18:45.549Z,78.60
2023-04-11T12:21:13.649Z,81.13
2023-04-11T12:23:41.604Z,81.54
2023-04-11T12:26:09.616Z,81.95
2023-04-11T12:28:37.566Z,82.75
2023-04-11T12:31:05.901Z,82.79
2023-04-11T12:33:36.181Z,81.62
2023-04-11T12:36:04.114Z,81.30
2023-04-11T12:38:32.002Z,80.79
2023-04-11T12:41:19.792Z,81.09
2023-04-11T12:43:47.864Z,80.00
2023-04-11T12:46:17.236Z,78.04
2023-04-11T12:48:46.558Z,77.22
2023-04-11T12:51:14.450Z,77.21
2023-04-11T12:53:42.333Z,77.56
2023-04-11T12:56:10.492Z,77.45
2023-04-11T12:58:38.411Z,76.33
2023-04-11T13:01:07.520Z,76.92
2023-04-11T13:03:35.519Z,76.84
2023-04-11T13:06:05.053Z,77.00
2023-04-11T13:08:32.986Z,77.03
2023-04-11T13:11:01.007Z,76.48
2023-04-11T13:13:28.889Z,75.55
2023-04-11T13:15:56.811Z,75.99
2023-04-11T13:18:24.977Z,76.48
2023-04-11T13:20:53.586Z,75.75
2023-04-11T13:23:22.887Z,74.91
2023-04-11T13:25:50.899Z,73.82
2023-04-11T13:28:18.853Z,74.42
2023-04-11T13:30:46.849Z,73.78
2023-04-11T13:33:14.769Z,74.44
2023-04-11T13:35:42.896Z,74.29
2023-04-11T13:38:11.265Z,74.32
2023-04-11T13:40:42.780Z,73.39
2023-04-11T13:43:11.107Z,74.07
2023-04-11T13:45:39.053Z,71.48
2023-04-11T13:48:07.086Z,70.53
2023-04-11T13:50:35.860Z,69.59
2023-04-11T13:53:03.892Z,69.61
2023-04-11T13:55:31.932Z,68.70
2023-04-11T13:58:01.224Z,67.38
2023-04-11T14:00:29.255Z,67.74
2023-04-11T14:02:57.333Z,66.97
2023-04-11T14:05:27.065Z,68.74
2023-04-11T14:07:55.076Z,68.81
2023-04-11T14:10:23.021Z,68.19
2023-04-11T14:12:51.182Z,69.79
2023-04-11T14:15:21.900Z,69.67
2023-04-11T14:17:50.073Z,69.68
2023-04-11T14:20:18.078Z,68.57
2023-04-11T14:22:46.708Z,68.12
2023-04-11T14:25:15.756Z,68.27
2023-04-11T14:27:43.951Z,66.90
2023-04-11T14:30:13.527Z,66.44
2023-04-11T14:32:43.114Z,67.76
2023-04-11T14:35:11.235Z,67.67
2023-04-11T14:37:39.187Z,66.92
2023-04-11T14:40:10.137Z,66.92
2023-04-11T14:42:38.180Z,67.77
2023-04-11T14:45:07.467Z,66.35
2023-04-11T14:47:35.755Z,67.17
2023-04-11T14:50:05.384Z,66.97
2023-04-11T14:52:33.363Z,65.54
2023-04-11T14:55:01.295Z,65.07
2023-04-11T14:57:45.129Z,65.82
2023-04-11T15:00:18.979Z,64.88
2023-04-11T15:02:48.400Z,65.29
2023-04-11T15:05:19.815Z,65.48
2023-04-11T15:07:49.386Z,64.57
2023-04-11T15:10:19.654Z,64.94
2023-04-11T15:12:47.742Z,64.79
2023-04-11T15:15:16.294Z,65.01
2023-04-11T15:17:46.538Z,64.88
2023-04-11T15:20:15.664Z,64.66
2023-04-11T15:22:46.384Z,64.91
2023-04-11T15:25:16.674Z,66.39
2023-04-11T15:27:45.093Z,66.17
2023-04-11T15:30:13.644Z,65.88
2023-04-11T15:32:43.819Z,66.27
2023-04-11T15:35:12.439Z,66.06
2023-04-11T15:37:41.084Z,65.84
2023-04-11T15:40:12.499Z,65.79
2023-04-11T15:42:40.783Z,65.98
2023-04-11T15:45:09.325Z,65.36
2023-04-11T15:47:37.283Z,65.91
2023-04-11T15:50:05.754Z,66.78
2023-04-11T15:52:33.718Z,66.63
2023-04-11T15:55:01.595Z,65.88
2023-04-11T15:57:30.989Z,66.08
2023-04-11T15:59:59.745Z,65.76
2023-04-11T16:02:28.281Z,65.91
2023-04-11T16:04:56.544Z,65.01
2023-04-11T16:07:25.064Z,65.92
2023-04-11T16:09:53.021Z,65.29
2023-04-11T16:12:21.090Z,66.28
2023-04-11T16:14:50.375Z,65.56
2023-04-11T16:17:19.079Z,66.03
2023-04-11T16:19:47.102Z,65.56
2023-04-11T16:22:15.027Z,65.97
2023-04-11T16:24:42.946Z,65.50
2023-04-11T16:27:10.909Z,65.37
2023-04-11T16:29:38.880Z,65.26
2023-04-11T16:32:08.415Z,65.13
2023-04-11T16:34:36.572Z,65.69
2023-04-11T16:37:04.501Z,66.50
2023-04-11T16:39:32.431Z,66.22
2023-04-11T16:42:01.877Z,66.09
2023-04-11T16:44:29.780Z,66.46
2023-04-11T16:46:57.690Z,66.69
2023-04-11T16:49:26.987Z,66.25
2023-04-11T16:51:55.008Z,66.53
2023-04-11T16:54:22.931Z,66.46
2023-04-11T16:56:50.871Z,65.96
2023-04-11T16:59:19.679Z,65.75
2023-04-11T17:01:47.764Z,66.05
2023-04-11T17:04:16.209Z,66.81
2023-04-11T17:06:46.293Z,67.00
2023-04-11T17:09:14.526Z,67.37
2023-04-11T17:11:42.446Z,67.95
2023-04-11T17:14:10.470Z,69.18
2023-04-11T17:16:38.418Z,69.00
2023-04-11T17:19:06.351Z,68.58
2023-04-11T17:21:34.286Z,69.06
2023-04-11T17:24:03.674Z,70.19
2023-04-11T17:26:31.668Z,70.47
2023-04-11T17:29:00.030Z,71.06
2023-04-11T17:31:29.542Z,71.00
2023-04-11T17:33:57.673Z,71.87
2023-04-11T17:36:25.826Z,71.73
2023-04-11T17:38:54.780Z,71.56
2023-04-11T17:41:24.033Z,71.59
2023-04-11T17:43:51.908Z,71.45
2023-04-11T17:46:20.403Z,72.03
2023-04-11T17:48:48.417Z,72.39
2023-04-11T17:51:16.381Z,72.90
2023-04-11T17:53:44.300Z,73.28
2023-04-11T17:56:12.366Z,73.33
2023-04-11T17:58:44.308Z,74.32
2023-04-11T18:01:12.541Z,74.30
2023-04-11T18:03:41.267Z,74.74
2023-04-11T18:06:10.878Z,74.56
2023-04-11T18:08:50.322Z,74.60
2023-04-11T18:11:19.271Z,74.72
2023-04-11T18:13:50.367Z,74.60
2023-04-11T18:16:18.793Z,74.54
2023-04-11T18:18:47.267Z,74.94
2023-04-11T18:21:15.919Z,75.82
2023-04-11T18:23:43.823Z,75.75
2023-04-11T18:26:11.713Z,75.67
2023-04-11T18:28:39.614Z,76.24
2023-04-11T18:31:09.484Z,76.50
2023-04-11T18:33:41.429Z,76.58
2023-04-11T18:36:11.134Z,76.73
2023-04-11T18:38:39.066Z,77.25
2023-04-11T18:41:07.744Z,77.92
2023-04-11T18:43:38.180Z,77.43
2023-04-11T18:46:09.637Z,77.61
2023-04-11T18:48:37.786Z,78.22
2023-04-11T18:51:06.605Z,78.04
2023-04-11T18:53:36.541Z,78.53
2023-04-11T18:56:04.984Z,77.85
2023-04-11T18:58:34.492Z,77.87
2023-04-11T19:01:14.027Z,77.26
2023-04-11T19:03:44.950Z,76.73
2023-04-11T19:06:13.249Z,76.42
2023-04-11T19:08:41.643Z,74.81
2023-04-11T19:11:09.581Z,74.33
2023-04-11T19:13:37.571Z,74.34
2023-04-11T19:16:06.580Z,73.21
2023-04-11T19:18:34.699Z,71.37
2023-04-11T19:21:04.069Z,70.50
2023-04-11T19:23:32.067Z,69.54
2023-04-11T19:26:00.711Z,68.46
2023-04-11T19:28:28.834Z,67.28
2023-04-11T19:30:56.779Z,66.41
2023-04-11T19:33:26.189Z,66.03
2023-04-11T19:35:54.416Z,65.22
2023-04-11T19:38:23.815Z,65.00
2023-04-11T19:40:51.752Z,64.39
2023-04-11T19:43:19.785Z,64.07
2023-04-11T19:45:47.770Z,63.62
2023-04-11T19:48:16.259Z,64.01
2023-04-11T19:50:44.370Z,65.60
2023-04-11T19:53:12.279Z,67.63
2023-04-11T19:55:41.818Z,69.22
2023-04-11T19:58:09.739Z,70.35
2023-04-11T20:00:38.592Z,70.77
2023-04-11T20:03:09.696Z,71.07
2023-04-11T20:05:37.733Z,71.64
2023-04-11T20:08:05.811Z,72.33
2023-04-11T20:10:34.213Z,72.57
2023-04-11T20:13:03.790Z,73.68
2023-04-11T20:15:32.017Z,75.12
2023-04-11T20:18:00.819Z,75.95
2023-04-11T20:20:29.428Z,77.15
2023-04-11T20:22:57.887Z,77.63
2023-04-11T20:25:25.870Z,78.41
2023-04-11T20:27:53.817Z,79.29
2023-04-11T20:30:23.158Z,79.91
2023-04-11T20:32:51.222Z,80.84
2023-04-11T20:35:19.537Z,80.65
2023-04-11T20:37:49.833Z,80.22
2023-04-11T20:40:18.200Z,79.60
2023-04-11T20:42:47.630Z,78.51
2023-04-11T20:45:17.210Z,78.15
2023-04-11T20:47:47.740Z,77.24
2023-04-11T20:50:17.714Z,76.82
2023-04-11T20:52:50.519Z,75.47
2023-04-11T20:55:18.857Z,75.00
2023-04-11T20:57:46.775Z,75.15
2023-04-11T21:00:17.150Z,75.01
2023-04-11T21:02:49.962Z,74.88
2023-04-11T21:05:20.341Z,75.12
2023-04-11T21:07:48.355Z,75.55
2023-04-11T21:10:16.676Z,75.29
2023-04-11T21:12:51.183Z,75.43
2023-04-11T21:15:19.866Z,75.39
2023-04-11T21:17:50.133Z,75.12
2023-04-11T21:20:22.258Z,74.99
2023-04-11T21:22:52.883Z,74.87
2023-04-11T21:25:21.420Z,74.99
2023-04-11T21:27:49.871Z,75.06
2023-04-11T21:30:17.812Z,75.03
2023-04-11T21:32:45.758Z,74.62
2023-04-11T21:35:15.117Z,74.94
2023-04-11T21:37:43.006Z,75.25
2023-04-11T21:40:12.729Z,74.97
2023-04-11T21:42:40.984Z,75.44
2023-04-11T21:45:09.925Z,75.61
2023-04-11T21:47:37.926Z,75.88
2023-04-11T21:50:06.672Z,75.64
2023-04-11T21:52:35.956Z,75.69
2023-04-11T21:55:06.462Z,75.75
2023-04-11T21:57:36.354Z,75.77
2023-04-11T22:00:05.199Z,75.97
2023-04-11T22:02:40.033Z,76.63
2023-04-11T22:05:09.960Z,76.59
2023-04-11T22:07:39.546Z,76.61
2023-04-11T22:10:10.518Z,77.17
2023-04-11T22:12:39.062Z,77.21
2023-04-11T22:15:08.033Z,76.12
2023-04-11T22:17:37.219Z,75.71
2023-04-11T22:20:08.311Z,75.81
2023-04-11T22:22:36.405Z,75.92
2023-04-11T22:25:06.981Z,76.14
2023-04-11T22:27:35.272Z,75.95
2023-04-11T22:30:03.380Z,75.91
2023-04-11T22:32:31.313Z,76.05
2023-04-11T22:34:59.997Z,75.67
2023-04-11T22:37:27.985Z,76.14
2023-04-11T22:39:55.891Z,76.28
2023-04-11T22:42:25.711Z,76.64
2023-04-11T22:44:53.608Z,76.88
2023-04-11T22:47:21.891Z,76.89
2023-04-11T22:49:50.610Z,76.59
2023-04-11T22:52:24.305Z,77.55
2023-04-11T22:54:52.573Z,77.89
2023-04-11T22:57:20.556Z,76.71
2023-04-11T22:59:49.831Z,76.64
2023-04-11T23:02:17.851Z,76.36
2023-04-11T23:04:45.909Z,76.78
2023-04-11T23:07:13.976Z,77.43
2023-04-11T23:09:42.610Z,77.32
2023-04-11T23:12:10.558Z,77.72
2023-04-11T23:14:38.475Z,78.27
2023-04-11T23:17:07.755Z,78.79
2023-04-11T23:19:35.746Z,79.78
2023-04-11T23:22:03.714Z,80.25
2023-04-11T23:24:31.683Z,79.59
2023-04-11T23:26:59.611Z,78.73
2023-04-11T23:29:27.616Z,77.79
2023-04-11T23:31:55.853Z,78.16
2023-04-11T23:34:25.145Z,77.95
2023-04-11T23:36:53.059Z,77.96
2023-04-11T23:39:21.553Z,77.73
2023-04-11T23:41:49.540Z,78.11
2023-04-11T23:44:17.461Z,77.83
2023-04-11T23:46:45.442Z,77.53
2023-04-11T23:49:13.364Z,77.23
2023-04-11T23:51:43.219Z,77.05
2023-04-11T23:54:11.322Z,77.16
2023-04-11T23:56:39.298Z,77.58
2023-04-11T23:59:07.176Z,78.65
